Pays
Station

 

Conditions  météo  pour  Vestmannaeyjar  -  Islande    Islande

  
8 °C
    
 
 

METAR pour Vestmannaeyjar :

BIVM 180800Z 03013KT 9999 VCSH FEW010 SCT020 08/06 Q1003

 

Voici le bulletin pour Vestmannaeyjar - Islande.
 
Le bulletin a été fait il y a 56 minutes, à 08:00 UTC .
Le vent soufflait à la vitesse de 6.7 mètres par seconde de Nord/Nord-est (030°).
 
La température était de 8 °C, avec un point de rosée à 6 °C.
La pression atmosphérique était de 1003 hPa.
L'humidité relative était de 87.2%.
 
Il y avait 1 à 2/8ème de nébulosité à une hauteur de 305 mètres et 3 à 4/8ème de nébulosité à une hauteur de 610 mètres.
 
La visibilité globale était de supérieure à 10 kilomètres.
 
Actuellement averses de à proximité.

 
 
 

Pays :   A   B   C   D   E   F   G   H   I   J   K   L   M   N   O   P   Q   R   S   T   U   V   W   Y   Z

 

Partenaires :  Info Météo avec Met'info
Météo Marine avec MeteoMarine.net
Infos Site  |  Infos Légales  |  Crédits  |  Confidentialité
Contactez-nous  |  Ajouter aux favoris
© 2013-2019 METAR - Tous droits réservés